sensor_id;sensor_type;location;lat;lon;timestamp;P1;durP1;ratioP1;P2;durP2;ratioP2
6926;SDS011;3503;50.07605000;8.86719200;2023-05-09T00:05:34;24.90;;;15.00;;
6926;SDS011;3503;50.07605000;8.86719200;2023-05-09T00:20:37;19.23;;;13.60;;
6926;SDS011;3503;50.07605000;8.86719200;2023-05-09T00:35:41;22.13;;;14.17;;
6926;SDS011;3503;50.07605000;8.86719200;2023-05-09T00:50:44;22.30;;;14.70;;
6926;SDS011;3503;50.07605000;8.86719200;2023-05-09T01:05:51;24.33;;;16.23;;
6926;SDS011;3503;50.07605000;8.86719200;2023-05-09T01:20:59;25.10;;;15.97;;
6926;SDS011;3503;50.07605000;8.86719200;2023-05-09T01:36:06;24.27;;;14.70;;
6926;SDS011;3503;50.07605000;8.86719200;2023-05-09T01:51:11;25.20;;;16.83;;
6926;SDS011;3503;50.07605000;8.86719200;2023-05-09T02:06:15;25.60;;;15.53;;
6926;SDS011;3503;50.07605000;8.86719200;2023-05-09T02:21:20;24.77;;;16.10;;
6926;SDS011;3503;50.07605000;8.86719200;2023-05-09T02:36:23;24.47;;;16.10;;
6926;SDS011;3503;50.07605000;8.86719200;2023-05-09T02:51:26;24.70;;;16.53;;
6926;SDS011;3503;50.07605000;8.86719200;2023-05-09T03:06:29;27.20;;;16.47;;
6926;SDS011;3503;50.07605000;8.86719200;2023-05-09T03:21:32;29.13;;;17.63;;
6926;SDS011;3503;50.07605000;8.86719200;2023-05-09T03:36:36;25.53;;;16.07;;
6926;SDS011;3503;50.07605000;8.86719200;2023-05-09T03:51:39;30.30;;;16.60;;
6926;SDS011;3503;50.07605000;8.86719200;2023-05-09T04:06:42;27.33;;;16.00;;
6926;SDS011;3503;50.07605000;8.86719200;2023-05-09T04:21:45;29.50;;;18.57;;
6926;SDS011;3503;50.07605000;8.86719200;2023-05-09T04:36:48;31.07;;;17.87;;
6926;SDS011;3503;50.07605000;8.86719200;2023-05-09T04:51:52;29.73;;;18.00;;
6926;SDS011;3503;50.07605000;8.86719200;2023-05-09T05:06:55;26.87;;;16.87;;
6926;SDS011;3503;50.07605000;8.86719200;2023-05-09T05:22:02;36.60;;;18.57;;
6926;SDS011;3503;50.07605000;8.86719200;2023-05-09T05:37:05;27.80;;;16.33;;
6926;SDS011;3503;50.07605000;8.86719200;2023-05-09T05:52:08;46.40;;;18.07;;
6926;SDS011;3503;50.07605000;8.86719200;2023-05-09T06:07:11;26.53;;;16.70;;
6926;SDS011;3503;50.07605000;8.86719200;2023-05-09T06:22:15;25.03;;;15.70;;
6926;SDS011;3503;50.07605000;8.86719200;2023-05-09T06:37:18;25.90;;;15.27;;
6926;SDS011;3503;50.07605000;8.86719200;2023-05-09T06:52:21;21.17;;;15.33;;
6926;SDS011;3503;50.07605000;8.86719200;2023-05-09T07:07:24;26.37;;;14.70;;
6926;SDS011;3503;50.07605000;8.86719200;2023-05-09T07:22:27;20.83;;;14.53;;
6926;SDS011;3503;50.07605000;8.86719200;2023-05-09T07:37:31;20.87;;;14.30;;
6926;SDS011;3503;50.07605000;8.86719200;2023-05-09T07:52:34;25.13;;;13.80;;
6926;SDS011;3503;50.07605000;8.86719200;2023-05-09T08:07:37;32.50;;;16.23;;
6926;SDS011;3503;50.07605000;8.86719200;2023-05-09T08:22:40;24.97;;;13.97;;
6926;SDS011;3503;50.07605000;8.86719200;2023-05-09T08:37:43;20.43;;;14.30;;
6926;SDS011;3503;50.07605000;8.86719200;2023-05-09T08:52:48;23.60;;;14.70;;
6926;SDS011;3503;50.07605000;8.86719200;2023-05-09T09:07:51;24.07;;;12.97;;
6926;SDS011;3503;50.07605000;8.86719200;2023-05-09T09:22:56;21.23;;;14.30;;
6926;SDS011;3503;50.07605000;8.86719200;2023-05-09T09:38:01;20.70;;;12.93;;
6926;SDS011;3503;50.07605000;8.86719200;2023-05-09T09:53:04;20.57;;;13.73;;
6926;SDS011;3503;50.07605000;8.86719200;2023-05-09T10:08:07;24.23;;;14.10;;
6926;SDS011;3503;50.07605000;8.86719200;2023-05-09T10:23:11;45.43;;;16.50;;
6926;SDS011;3503;50.07605000;8.86719200;2023-05-09T10:38:16;18.63;;;12.30;;
6926;SDS011;3503;50.07605000;8.86719200;2023-05-09T10:53:20;22.30;;;10.80;;
6926;SDS011;3503;50.07605000;8.86719200;2023-05-09T11:08:25;11.60;;;8.10;;
6926;SDS011;3503;50.07605000;8.86719200;2023-05-09T11:23:29;9.90;;;6.50;;
6926;SDS011;3503;50.07605000;8.86719200;2023-05-09T11:38:40;12.20;;;7.93;;
6926;SDS011;3503;50.07605000;8.86719200;2023-05-09T11:53:44;13.17;;;7.20;;
6926;SDS011;3503;50.07605000;8.86719200;2023-05-09T12:08:48;9.67;;;7.53;;
6926;SDS011;3503;50.07605000;8.86719200;2023-05-09T12:23:54;7.93;;;5.40;;
6926;SDS011;3503;50.07605000;8.86719200;2023-05-09T12:38:57;6.20;;;4.03;;
6926;SDS011;3503;50.07605000;8.86719200;2023-05-09T12:54:02;6.20;;;3.67;;
6926;SDS011;3503;50.07605000;8.86719200;2023-05-09T13:09:06;9.17;;;3.90;;
6926;SDS011;3503;50.07605000;8.86719200;2023-05-09T13:24:10;5.57;;;3.90;;
6926;SDS011;3503;50.07605000;8.86719200;2023-05-09T13:39:13;6.87;;;3.70;;
6926;SDS011;3503;50.07605000;8.86719200;2023-05-09T13:54:17;6.23;;;3.33;;
6926;SDS011;3503;50.07605000;8.86719200;2023-05-09T14:09:20;7.33;;;4.03;;
6926;SDS011;3503;50.07605000;8.86719200;2023-05-09T14:24:23;3.43;;;2.70;;
6926;SDS011;3503;50.07605000;8.86719200;2023-05-09T14:39:27;3.50;;;2.57;;
6926;SDS011;3503;50.07605000;8.86719200;2023-05-09T14:54:30;4.77;;;3.37;;
6926;SDS011;3503;50.07605000;8.86719200;2023-05-09T15:09:33;4.60;;;2.70;;
6926;SDS011;3503;50.07605000;8.86719200;2023-05-09T15:24:36;4.27;;;2.60;;
6926;SDS011;3503;50.07605000;8.86719200;2023-05-09T15:39:43;18.10;;;10.00;;
6926;SDS011;3503;50.07605000;8.86719200;2023-05-09T15:54:46;15.43;;;8.87;;
6926;SDS011;3503;50.07605000;8.86719200;2023-05-09T16:09:49;19.83;;;9.70;;
6926;SDS011;3503;50.07605000;8.86719200;2023-05-09T16:24:53;19.53;;;10.33;;
6926;SDS011;3503;50.07605000;8.86719200;2023-05-09T16:39:56;21.97;;;10.20;;
6926;SDS011;3503;50.07605000;8.86719200;2023-05-09T16:54:59;14.20;;;9.40;;
6926;SDS011;3503;50.07605000;8.86719200;2023-05-09T17:10:03;15.50;;;9.10;;
6926;SDS011;3503;50.07605000;8.86719200;2023-05-09T17:25:07;16.07;;;9.43;;
6926;SDS011;3503;50.07605000;8.86719200;2023-05-09T17:40:11;12.73;;;8.40;;
6926;SDS011;3503;50.07605000;8.86719200;2023-05-09T17:55:15;11.47;;;7.80;;
6926;SDS011;3503;50.07605000;8.86719200;2023-05-09T18:10:18;13.70;;;8.37;;
6926;SDS011;3503;50.07605000;8.86719200;2023-05-09T18:25:21;16.37;;;8.33;;
6926;SDS011;3503;50.07605000;8.86719200;2023-05-09T18:40:25;16.87;;;7.47;;
6926;SDS011;3503;50.07605000;8.86719200;2023-05-09T18:55:28;8.30;;;5.43;;
6926;SDS011;3503;50.07605000;8.86719200;2023-05-09T19:10:31;12.03;;;7.10;;
6926;SDS011;3503;50.07605000;8.86719200;2023-05-09T19:25:36;11.23;;;6.40;;
6926;SDS011;3503;50.07605000;8.86719200;2023-05-09T19:40:39;14.70;;;7.57;;
6926;SDS011;3503;50.07605000;8.86719200;2023-05-09T19:55:42;12.70;;;7.60;;
6926;SDS011;3503;50.07605000;8.86719200;2023-05-09T20:10:47;15.43;;;5.53;;
6926;SDS011;3503;50.07605000;8.86719200;2023-05-09T20:25:50;8.57;;;5.20;;
6926;SDS011;3503;50.07605000;8.86719200;2023-05-09T20:40:53;7.77;;;5.10;;
6926;SDS011;3503;50.07605000;8.86719200;2023-05-09T20:55:56;9.30;;;5.40;;
6926;SDS011;3503;50.07605000;8.86719200;2023-05-09T21:11:00;9.07;;;5.57;;
6926;SDS011;3503;50.07605000;8.86719200;2023-05-09T21:26:03;14.57;;;4.43;;
6926;SDS011;3503;50.07605000;8.86719200;2023-05-09T21:41:06;12.10;;;3.93;;
6926;SDS011;3503;50.07605000;8.86719200;2023-05-09T21:56:10;10.37;;;3.60;;
6926;SDS011;3503;50.07605000;8.86719200;2023-05-09T22:11:13;9.10;;;4.47;;
6926;SDS011;3503;50.07605000;8.86719200;2023-05-09T22:26:16;6.53;;;3.50;;
6926;SDS011;3503;50.07605000;8.86719200;2023-05-09T22:41:19;10.13;;;3.93;;
6926;SDS011;3503;50.07605000;8.86719200;2023-05-09T22:56:23;8.23;;;3.23;;
6926;SDS011;3503;50.07605000;8.86719200;2023-05-09T23:11:26;9.70;;;4.20;;
6926;SDS011;3503;50.07605000;8.86719200;2023-05-09T23:26:30;8.83;;;4.67;;
6926;SDS011;3503;50.07605000;8.86719200;2023-05-09T23:41:33;7.13;;;2.90;;
6926;SDS011;3503;50.07605000;8.86719200;2023-05-09T23:56:37;11.10;;;0.90;;
